createdAt,value
2022-11-07T00:00:16.650Z,6.84
2022-11-07T00:10:26.289Z,6.72
2022-11-07T00:20:28.143Z,6.91
2022-11-07T00:30:29.865Z,7.02
2022-11-07T00:40:57.079Z,7.24
2022-11-07T00:51:25.454Z,7.37
2022-11-07T01:01:32.941Z,7.40
2022-11-07T01:11:39.358Z,7.60
2022-11-07T01:21:45.114Z,7.45
2022-11-07T01:31:47.740Z,7.48
2022-11-07T01:41:49.479Z,7.63
2022-11-07T01:52:19.045Z,7.66
2022-11-07T02:02:27.506Z,7.68
2022-11-07T02:12:29.481Z,7.77
2022-11-07T02:22:52.067Z,7.88
2022-11-07T02:32:57.212Z,7.81
2022-11-07T02:43:00.323Z,7.83
2022-11-07T02:53:02.139Z,7.78
2022-11-07T03:03:04.804Z,7.77
2022-11-07T03:13:06.633Z,7.94
2022-11-07T03:23:10.822Z,7.78
2022-11-07T03:33:14.780Z,7.99
2022-11-07T03:43:17.293Z,8.13
2022-11-07T03:53:25.941Z,8.17
2022-11-07T04:03:28.824Z,8.04
2022-11-07T04:13:49.024Z,7.97
2022-11-07T04:23:53.992Z,8.03
2022-11-07T04:33:55.623Z,8.08
2022-11-07T04:43:59.792Z,8.18
2022-11-07T04:54:02.504Z,8.34
2022-11-07T05:04:13.420Z,8.27
2022-11-07T05:14:15.500Z,8.32
2022-11-07T05:24:19.300Z,8.30
2022-11-07T05:34:20.991Z,8.31
2022-11-07T05:44:23.833Z,8.29
2022-11-07T05:54:28.010Z,8.37
2022-11-07T06:04:29.863Z,8.58
2022-11-07T06:14:34.530Z,8.54
2022-11-07T06:24:37.209Z,8.66
2022-11-07T06:34:50.257Z,8.76
2022-11-07T06:44:52.041Z,8.80
2022-11-07T06:54:56.808Z,9.20
2022-11-07T07:05:03.732Z,9.19
2022-11-07T07:15:07.343Z,9.37
2022-11-07T07:25:12.175Z,9.27
2022-11-07T07:35:14.429Z,9.38
2022-11-07T07:45:25.626Z,9.67
2022-11-07T07:55:27.287Z,9.92
2022-11-07T08:05:30.409Z,9.94
2022-11-07T08:15:33.303Z,10.25
2022-11-07T08:25:37.495Z,10.46
2022-11-07T08:35:42.967Z,10.77
2022-11-07T08:45:48.040Z,11.02
2022-11-07T08:55:50.130Z,10.99
2022-11-07T09:05:51.860Z,11.15
2022-11-07T09:15:58.728Z,11.42
2022-11-07T09:26:03.813Z,11.64
2022-11-07T09:36:06.089Z,11.96
2022-11-07T09:46:10.786Z,12.24
2022-11-07T09:56:13.404Z,12.20
2022-11-07T10:06:27.245Z,11.96
2022-11-07T10:17:00.515Z,12.29
2022-11-07T10:27:11.543Z,12.38
2022-11-07T10:37:13.375Z,12.20
2022-11-07T10:47:20.855Z,12.40
2022-11-07T10:57:23.703Z,12.04
2022-11-07T11:07:32.904Z,11.75
2022-11-07T11:17:35.596Z,11.77
2022-11-07T11:27:38.865Z,11.81
2022-11-07T11:37:49.362Z,11.49
2022-11-07T11:48:00.530Z,11.48
2022-11-07T11:58:31.332Z,11.27
2022-11-07T12:08:57.822Z,11.01
2022-11-07T12:19:38.724Z,11.05
2022-11-07T12:29:59.874Z,11.52
2022-11-07T12:40:39.358Z,11.83
2022-11-07T12:50:41.989Z,13.52
2022-11-07T13:00:45.029Z,19.04
2022-11-07T13:10:58.415Z,24.56
2022-11-07T13:21:05.096Z,20.40
2022-11-07T13:31:34.725Z,15.12
2022-11-07T13:41:37.955Z,13.61
2022-11-07T13:51:51.677Z,13.24
2022-11-07T14:01:58.875Z,12.77
2022-11-07T14:12:23.609Z,13.34
2022-11-07T14:22:31.594Z,15.79
2022-11-07T14:32:36.786Z,13.38
2022-11-07T14:42:38.838Z,12.04
2022-11-07T14:53:08.778Z,11.53
2022-11-07T15:13:54.168Z,10.49
2022-11-07T15:24:25.166Z,10.33
2022-11-07T15:34:52.497Z,10.16
2022-11-07T15:46:51.582Z,9.66
2022-11-07T15:57:05.552Z,9.35
2022-11-07T16:07:19.945Z,9.03
2022-11-07T16:17:22.577Z,8.92
2022-11-07T16:27:24.299Z,8.95
2022-11-07T16:37:26.031Z,8.69
2022-11-07T16:47:30.481Z,8.44
2022-11-07T16:57:37.226Z,8.22
2022-11-07T17:07:40.947Z,8.03
2022-11-07T17:17:44.163Z,7.81
2022-11-07T17:27:46.664Z,7.66
2022-11-07T17:37:51.132Z,7.66
2022-11-07T17:47:58.685Z,7.23
2022-11-07T17:58:02.576Z,7.31
2022-11-07T18:08:04.836Z,7.13
2022-11-07T18:18:10.901Z,6.95
2022-11-07T18:28:13.532Z,6.97
2022-11-07T18:38:17.444Z,6.86
2022-11-07T18:48:19.714Z,6.66
2022-11-07T18:58:24.888Z,6.53
2022-11-07T19:08:31.396Z,6.45
2022-11-07T19:18:46.554Z,6.21
2022-11-07T19:29:01.464Z,6.23
2022-11-07T19:39:05.588Z,6.06
2022-11-07T19:49:07.747Z,5.81
2022-11-07T19:59:11.405Z,5.86
2022-11-07T20:09:14.167Z,5.86
2022-11-07T20:19:22.125Z,5.74
2022-11-07T20:29:28.777Z,5.71
2022-11-07T20:39:31.894Z,5.58
2022-11-07T20:49:34.330Z,5.44
2022-11-07T20:59:36.506Z,5.30
2022-11-07T21:09:38.520Z,5.32
2022-11-07T21:19:41.076Z,5.31
2022-11-07T21:29:57.075Z,5.31
2022-11-07T21:39:59.822Z,5.09
2022-11-07T21:50:09.469Z,5.02
2022-11-07T22:00:25.759Z,5.00
2022-11-07T22:10:29.638Z,5.01
2022-11-07T22:20:32.470Z,4.83
2022-11-07T22:30:34.061Z,4.76
2022-11-07T22:40:35.759Z,4.81
2022-11-07T22:50:37.679Z,4.72
2022-11-07T23:00:39.406Z,4.56
2022-11-07T23:10:41.821Z,4.66
2022-11-07T23:21:09.962Z,4.38
2022-11-07T23:31:18.321Z,4.42
2022-11-07T23:41:22.201Z,4.46
2022-11-07T23:51:31.826Z,4.39
